Time;durP1;ratioP1;P1;durP2;ratioP2;P2;SDS_P1;SDS_P2;PMS_P1;PMS_P2;Temp;Humidity;BMP_temperature;BMP_pressure;BME280_temperature;BME280_humidity;BME280_pressure;Samples;Min_cycle;Max_cycle;Signal;HPM_P1;HPM_P2
2022/12/02 00:00:25;;;;;;;42.38;22.83;;;;;;;;;;5130485;27;20035;-63
2022/12/02 00:02:51;;;;;;;42.70;23.08;;;;;;;;;;5121929;27;20047;-63
2022/12/02 00:05:18;;;;;;;43.85;23.60;;;;;;;;;;5131822;27;20280;-64
2022/12/02 00:07:47;;;;;;;39.88;21.45;;;;;;;;;;5108975;28;20031;-63
2022/12/02 00:10:32;;;;;;;35.35;21.25;;;;;;;;;;5130322;27;20047;-63
2022/12/02 00:13:07;;;;;;;44.65;22.10;;;;;;;;;;5111565;27;20508;-63
2022/12/02 00:15:36;;;;;;;39.38;21.45;;;;;;;;;;5130342;27;20043;-63
2022/12/02 00:18:03;;;;;;;44.95;23.25;;;;;;;;;;5119911;27;20485;-63
2022/12/02 00:20:29;;;;;;;41.78;22.58;;;;;;;;;;5103895;27;20099;-63
2022/12/02 00:22:55;;;;;;;41.20;23.30;;;;;;;;;;5108185;27;20063;-64
2022/12/02 00:25:21;;;;;;;49.15;24.85;;;;;;;;;;5087683;28;20131;-63
2022/12/02 00:27:47;;;;;;;43.03;23.48;;;;;;;;;;5127611;27;20516;-63
2022/12/02 00:30:14;;;;;;;31.52;20.05;;;;;;;;;;5129904;27;20130;-63
2022/12/02 00:32:40;;;;;;;41.58;21.95;;;;;;;;;;5125147;27;20043;-63
2022/12/02 00:35:06;;;;;;;46.65;23.98;;;;;;;;;;5120984;27;20046;-64
2022/12/02 00:37:32;;;;;;;49.67;22.88;;;;;;;;;;5109980;27;20043;-63
2022/12/02 00:39:58;;;;;;;35.40;21.92;;;;;;;;;;5130395;27;20050;-63
2022/12/02 00:42:24;;;;;;;40.47;22.77;;;;;;;;;;5125071;27;20043;-63
2022/12/02 00:47:35;;;;;;;37.65;22.20;;;;;;;;;;5123197;27;20512;-63
2022/12/02 00:50:01;;;;;;;45.13;22.55;;;;;;;;;;5118645;27;20506;-63
2022/12/02 00:52:27;;;;;;;36.60;22.02;;;;;;;;;;5127045;27;20121;-63
2022/12/02 00:54:53;;;;;;;46.13;23.38;;;;;;;;;;5125255;27;20083;-63
2022/12/02 00:57:19;;;;;;;47.90;23.60;;;;;;;;;;5102916;27;20042;-63
2022/12/02 00:59:45;;;;;;;46.50;22.70;;;;;;;;;;5125207;27;20035;-63
2022/12/02 01:02:12;;;;;;;38.80;22.20;;;;;;;;;;5117049;27;20035;-63
2022/12/02 01:04:38;;;;;;;42.83;23.63;;;;;;;;;;5109354;27;20043;-63
2022/12/02 01:07:04;;;;;;;42.67;22.42;;;;;;;;;;5113495;27;20031;-63
2022/12/02 01:09:30;;;;;;;37.30;23.90;;;;;;;;;;5125627;27;20039;-63
2022/12/02 01:11:56;;;;;;;39.47;22.90;;;;;;;;;;5117433;27;20039;-63
2022/12/02 01:14:22;;;;;;;42.90;23.30;;;;;;;;;;5118213;27;20043;-64
2022/12/02 01:16:48;;;;;;;39.78;21.42;;;;;;;;;;5112358;27;20031;-63
2022/12/02 01:19:14;;;;;;;44.33;22.88;;;;;;;;;;5110237;27;20117;-63
2022/12/02 01:21:40;;;;;;;47.63;24.17;;;;;;;;;;5092761;27;20134;-63
2022/12/02 01:24:06;;;;;;;43.47;22.92;;;;;;;;;;5128254;27;20043;-63
2022/12/02 01:26:32;;;;;;;38.78;21.65;;;;;;;;;;5110955;27;20042;-63
2022/12/02 01:28:59;;;;;;;40.10;23.30;;;;;;;;;;5092399;27;20062;-63
2022/12/02 01:31:25;;;;;;;37.72;20.48;;;;;;;;;;5127582;27;20616;-65
2022/12/02 01:33:51;;;;;;;41.95;22.02;;;;;;;;;;5125547;27;20485;-63
2022/12/02 01:36:17;;;;;;;36.80;21.63;;;;;;;;;;5116566;27;20053;-64
2022/12/02 01:38:43;;;;;;;36.05;20.60;;;;;;;;;;5117550;27;20044;-63
2022/12/02 01:41:09;;;;;;;44.22;24.73;;;;;;;;;;5091798;27;20039;-63
2022/12/02 01:43:36;;;;;;;43.15;22.17;;;;;;;;;;5121068;27;20084;-63
2022/12/02 01:46:02;;;;;;;40.97;23.40;;;;;;;;;;5120557;27;21205;-63
2022/12/02 01:48:29;;;;;;;38.78;21.65;;;;;;;;;;5113647;27;20035;-63
2022/12/02 01:50:56;;;;;;;42.03;21.48;;;;;;;;;;5120845;27;20044;-63
2022/12/02 01:53:22;;;;;;;43.15;23.27;;;;;;;;;;5118999;27;20560;-63
2022/12/02 01:55:48;;;;;;;33.65;21.55;;;;;;;;;;5118282;27;20060;-63
2022/12/02 01:58:14;;;;;;;38.60;22.05;;;;;;;;;;5109778;27;20038;-63
2022/12/02 02:00:41;;;;;;;38.40;21.27;;;;;;;;;;5129363;27;20243;-63
2022/12/02 02:03:07;;;;;;;41.67;22.42;;;;;;;;;;5087006;27;20050;-63
2022/12/02 02:05:34;;;;;;;42.60;22.10;;;;;;;;;;5095863;28;20031;-63
2022/12/02 02:08:04;;;;;;;45.92;23.15;;;;;;;;;;5109124;27;20035;-63
2022/12/02 02:10:31;;;;;;;42.38;22.33;;;;;;;;;;5106790;27;20039;-63
2022/12/02 02:12:57;;;;;;;46.08;22.95;;;;;;;;;;5110890;27;20132;-63
2022/12/02 02:15:23;;;;;;;36.38;21.42;;;;;;;;;;5104680;28;20027;-63
2022/12/02 02:17:50;;;;;;;40.33;22.80;;;;;;;;;;5122222;27;20047;-63
2022/12/02 02:20:20;;;;;;;44.10;23.02;;;;;;;;;;5122512;27;20031;-65
2022/12/02 02:23:05;;;;;;;44.40;24.38;;;;;;;;;;5120864;27;20054;-64
2022/12/02 02:25:38;;;;;;;38.22;19.90;;;;;;;;;;5115210;27;20427;-64
2022/12/02 02:28:05;;;;;;;38.90;19.98;;;;;;;;;;5120837;27;20143;-63
2022/12/02 02:30:32;;;;;;;43.63;23.52;;;;;;;;;;5101356;27;20047;-63
2022/12/02 02:33:00;;;;;;;36.90;21.10;;;;;;;;;;5124634;27;20377;-63
2022/12/02 02:35:26;;;;;;;47.45;24.27;;;;;;;;;;5104964;27;20039;-63
2022/12/02 02:37:53;;;;;;;40.22;22.73;;;;;;;;;;5114101;27;20077;-63
2022/12/02 02:40:20;;;;;;;36.80;21.30;;;;;;;;;;5120632;27;20565;-63
2022/12/02 02:42:50;;;;;;;39.45;20.30;;;;;;;;;;5125116;27;20046;-63
2022/12/02 02:45:17;;;;;;;38.22;20.10;;;;;;;;;;5104980;28;20100;-63
2022/12/02 02:47:43;;;;;;;37.08;21.10;;;;;;;;;;5121570;27;20055;-63
2022/12/02 02:50:09;;;;;;;35.92;21.02;;;;;;;;;;5072950;27;20043;-63
2022/12/02 02:52:36;;;;;;;38.10;20.85;;;;;;;;;;5117149;27;20041;-63
2022/12/02 02:55:02;;;;;;;42.70;21.33;;;;;;;;;;5116490;27;20031;-63
2022/12/02 02:57:29;;;;;;;38.47;18.88;;;;;;;;;;5112056;27;20084;-63
2022/12/02 02:59:56;;;;;;;37.33;21.27;;;;;;;;;;5122344;27;20436;-63
2022/12/02 03:02:22;;;;;;;33.42;18.33;;;;;;;;;;5117059;27;20035;-63
2022/12/02 03:04:49;;;;;;;32.20;18.67;;;;;;;;;;5100800;27;20130;-63
2022/12/02 03:07:15;;;;;;;33.85;19.42;;;;;;;;;;5114934;27;20592;-63
2022/12/02 03:09:41;;;;;;;38.53;18.17;;;;;;;;;;5124480;27;20035;-64
2022/12/02 03:12:08;;;;;;;42.60;20.27;;;;;;;;;;5116460;27;20419;-64
2022/12/02 03:14:34;;;;;;;38.33;19.73;;;;;;;;;;5106010;28;20114;-63
2022/12/02 03:17:01;;;;;;;37.97;21.92;;;;;;;;;;5104929;28;20039;-63
2022/12/02 03:19:29;;;;;;;35.78;19.17;;;;;;;;;;5120179;28;20038;-63
2022/12/02 03:21:55;;;;;;;35.42;19.67;;;;;;;;;;5116865;28;20307;-63
2022/12/02 03:24:22;;;;;;;37.30;18.85;;;;;;;;;;5119848;28;20135;-63
2022/12/02 03:26:48;;;;;;;37.55;19.10;;;;;;;;;;5122040;28;20035;-64
2022/12/02 03:29:14;;;;;;;36.00;20.40;;;;;;;;;;5106462;28;20185;-63
2022/12/02 03:31:41;;;;;;;39.40;21.52;;;;;;;;;;5110278;27;20481;-63
2022/12/02 03:34:08;;;;;;;37.30;19.40;;;;;;;;;;5127104;27;20087;-63
2022/12/02 03:36:35;;;;;;;32.75;18.40;;;;;;;;;;5123166;27;20061;-64
2022/12/02 03:39:01;;;;;;;29.85;19.90;;;;;;;;;;5127995;27;20039;-63
2022/12/02 03:41:27;;;;;;;38.88;20.52;;;;;;;;;;5114381;27;20281;-63
2022/12/02 03:43:57;;;;;;;35.28;19.85;;;;;;;;;;5114314;27;20567;-64
2022/12/02 03:46:24;;;;;;;38.97;20.20;;;;;;;;;;5108585;27;20051;-64
2022/12/02 03:48:50;;;;;;;35.38;18.92;;;;;;;;;;5126073;27;20050;-63
2022/12/02 03:51:17;;;;;;;37.10;20.92;;;;;;;;;;5127903;27;20035;-63
2022/12/02 03:53:43;;;;;;;40.85;22.70;;;;;;;;;;5123253;27;20078;-63
2022/12/02 03:56:10;;;;;;;39.35;21.40;;;;;;;;;;5093652;27;20040;-64
2022/12/02 03:58:44;;;;;;;34.70;18.60;;;;;;;;;;5122548;27;20035;-63
2022/12/02 04:01:10;;;;;;;42.15;23.95;;;;;;;;;;5130333;27;20035;-64
2022/12/02 04:03:36;;;;;;;43.17;22.02;;;;;;;;;;5110968;27;20146;-64
2022/12/02 04:06:02;;;;;;;45.60;22.27;;;;;;;;;;5118633;27;20080;-63
2022/12/02 04:08:29;;;;;;;42.42;22.77;;;;;;;;;;5122410;27;20532;-63
2022/12/02 04:10:55;;;;;;;42.53;20.85;;;;;;;;;;5093881;27;20047;-64
2022/12/02 04:13:21;;;;;;;45.92;21.73;;;;;;;;;;5119079;27;20038;-63
2022/12/02 04:15:47;;;;;;;41.95;22.15;;;;;;;;;;5119676;27;20416;-63
2022/12/02 04:18:13;;;;;;;47.20;24.52;;;;;;;;;;5126028;27;20035;-63
2022/12/02 04:20:40;;;;;;;44.50;23.02;;;;;;;;;;5120128;27;20074;-63
2022/12/02 04:23:06;;;;;;;40.28;21.48;;;;;;;;;;5119905;27;20049;-63
2022/12/02 04:25:32;;;;;;;44.65;22.30;;;;;;;;;;5115169;27;20066;-63
2022/12/02 04:27:58;;;;;;;38.40;20.90;;;;;;;;;;5119046;27;20031;-63
2022/12/02 04:30:24;;;;;;;37.40;21.23;;;;;;;;;;5109163;27;20130;-64
2022/12/02 04:32:50;;;;;;;42.28;22.67;;;;;;;;;;5120504;27;20404;-63
2022/12/02 04:35:17;;;;;;;40.75;23.50;;;;;;;;;;5123159;27;20151;-64
2022/12/02 04:37:43;;;;;;;43.55;20.33;;;;;;;;;;5112923;27;20036;-63
2022/12/02 04:40:09;;;;;;;38.38;20.50;;;;;;;;;;5123610;27;20036;-63
2022/12/02 04:42:35;;;;;;;38.95;21.33;;;;;;;;;;5118258;27;20039;-63
2022/12/02 04:45:01;;;;;;;38.20;20.33;;;;;;;;;;5119142;27;20053;-63
2022/12/02 04:47:28;;;;;;;40.25;20.38;;;;;;;;;;5116944;27;20126;-62
2022/12/02 04:49:54;;;;;;;37.67;21.15;;;;;;;;;;5096159;27;20123;-62
2022/12/02 04:52:20;;;;;;;38.10;20.55;;;;;;;;;;5123853;27;20042;-62
2022/12/02 04:54:46;;;;;;;39.53;22.13;;;;;;;;;;5115573;27;20050;-62
2022/12/02 04:57:12;;;;;;;48.60;21.48;;;;;;;;;;5119370;27;20243;-62
2022/12/02 04:59:38;;;;;;;39.92;23.15;;;;;;;;;;5123301;27;20101;-63
2022/12/02 05:02:04;;;;;;;37.53;20.70;;;;;;;;;;5121338;27;20045;-62
2022/12/02 05:04:30;;;;;;;37.15;21.52;;;;;;;;;;5116009;27;20081;-62
2022/12/02 05:06:56;;;;;;;35.65;21.08;;;;;;;;;;5110988;27;20035;-62
2022/12/02 05:09:22;;;;;;;32.35;20.00;;;;;;;;;;5116242;27;20115;-62
2022/12/02 05:11:49;;;;;;;35.78;20.77;;;;;;;;;;5111704;27;20043;-63
2022/12/02 05:14:15;;;;;;;45.33;20.98;;;;;;;;;;5129645;27;20119;-62
2022/12/02 05:16:41;;;;;;;43.40;20.85;;;;;;;;;;5127486;27;20039;-63
2022/12/02 05:19:07;;;;;;;34.95;19.80;;;;;;;;;;5127882;27;20076;-62
2022/12/02 05:21:33;;;;;;;39.25;20.35;;;;;;;;;;5129220;27;20039;-62
2022/12/02 05:23:59;;;;;;;41.10;21.98;;;;;;;;;;5122664;27;20039;-62
2022/12/02 05:26:25;;;;;;;38.50;22.23;;;;;;;;;;5124235;27;20046;-62
2022/12/02 05:28:51;;;;;;;41.15;21.38;;;;;;;;;;5109429;27;20429;-63
2022/12/02 05:31:17;;;;;;;37.95;21.83;;;;;;;;;;5129055;27;20065;-62
2022/12/02 05:33:44;;;;;;;39.72;20.77;;;;;;;;;;5125582;27;20481;-62
2022/12/02 05:36:11;;;;;;;38.75;20.73;;;;;;;;;;5128714;27;20088;-62
2022/12/02 05:38:38;;;;;;;42.58;21.88;;;;;;;;;;5123667;27;20035;-62
2022/12/02 05:41:04;;;;;;;44.78;22.35;;;;;;;;;;5125402;27;20078;-63
2022/12/02 05:43:36;;;;;;;36.53;20.33;;;;;;;;;;5127921;27;20043;-62
2022/12/02 05:46:05;;;;;;;43.67;22.92;;;;;;;;;;5128437;27;20043;-62
2022/12/02 05:48:33;;;;;;;58.42;23.63;;;;;;;;;;5124260;27;20059;-62
2022/12/02 05:50:59;;;;;;;53.28;25.58;;;;;;;;;;5116024;27;20067;-62
2022/12/02 05:53:27;;;;;;;50.67;22.85;;;;;;;;;;5128610;27;20503;-62
2022/12/02 05:55:54;;;;;;;54.00;24.88;;;;;;;;;;5124959;27;20396;-62
2022/12/02 05:58:20;;;;;;;51.15;24.15;;;;;;;;;;5126115;27;20125;-62
2022/12/02 06:00:54;;;;;;;42.83;22.38;;;;;;;;;;5118214;27;20134;-62
2022/12/02 06:03:21;;;;;;;44.75;22.20;;;;;;;;;;5108729;27;20141;-62
2022/12/02 06:05:48;;;;;;;56.50;25.58;;;;;;;;;;5109118;27;20091;-62
2022/12/02 06:08:26;;;;;;;62.13;25.85;;;;;;;;;;5106930;27;20043;-62
2022/12/02 06:10:53;;;;;;;47.88;26.98;;;;;;;;;;5122073;27;20081;-62
2022/12/02 06:13:21;;;;;;;55.13;25.02;;;;;;;;;;5096604;27;20504;-62
2022/12/02 06:15:48;;;;;;;50.78;26.60;;;;;;;;;;5124685;27;20136;-62
2022/12/02 06:18:16;;;;;;;55.47;25.80;;;;;;;;;;5118251;27;20039;-62
2022/12/02 06:20:42;;;;;;;45.55;24.00;;;;;;;;;;5126615;27;20047;-62
2022/12/02 06:23:11;;;;;;;47.92;25.02;;;;;;;;;;5107180;28;20043;-62
2022/12/02 06:25:38;;;;;;;50.50;25.02;;;;;;;;;;5097258;28;20040;-62
2022/12/02 06:28:16;;;;;;;54.83;23.85;;;;;;;;;;5103944;28;20097;-63
2022/12/02 06:30:42;;;;;;;47.95;24.23;;;;;;;;;;5121245;27;20055;-63
2022/12/02 06:33:14;;;;;;;47.08;23.83;;;;;;;;;;5120082;27;20185;-63
2022/12/02 06:35:40;;;;;;;49.63;26.38;;;;;;;;;;5122206;27;20054;-63
2022/12/02 06:38:13;;;;;;;57.85;26.15;;;;;;;;;;5116927;27;20097;-63
2022/12/02 06:40:39;;;;;;;48.30;23.65;;;;;;;;;;5120614;27;20046;-63
2022/12/02 06:43:14;;;;;;;56.25;26.23;;;;;;;;;;5084636;28;20479;-63
2022/12/02 06:45:42;;;;;;;49.25;23.60;;;;;;;;;;5124155;27;20058;-63
2022/12/02 06:48:20;;;;;;;53.65;23.90;;;;;;;;;;5102581;27;20046;-62
2022/12/02 06:50:47;;;;;;;50.05;23.75;;;;;;;;;;5113750;27;20043;-62
2022/12/02 06:53:33;;;;;;;55.08;24.35;;;;;;;;;;5125508;27;20495;-62
2022/12/02 06:56:20;;;;;;;59.28;25.10;;;;;;;;;;5122322;27;20035;-62
2022/12/02 06:58:47;;;;;;;50.17;23.63;;;;;;;;;;5105037;27;20036;-62
2022/12/02 07:01:13;;;;;;;54.80;24.45;;;;;;;;;;5112941;27;20043;-63
2022/12/02 07:03:47;;;;;;;67.07;26.52;;;;;;;;;;5116809;27;20489;-63
2022/12/02 07:06:27;;;;;;;48.45;24.63;;;;;;;;;;5117296;27;20311;-63
2022/12/02 07:08:58;;;;;;;52.03;24.92;;;;;;;;;;5104685;28;20624;-62
2022/12/02 07:14:19;;;;;;;58.00;26.50;;;;;;;;;;5118416;27;20040;-63
2022/12/02 07:16:46;;;;;;;57.22;25.50;;;;;;;;;;5102971;27;20494;-63
2022/12/02 07:19:35;;;;;;;56.20;25.80;;;;;;;;;;5111200;27;20047;-62
2022/12/02 07:22:01;;;;;;;48.65;23.83;;;;;;;;;;5107653;28;20043;-63
2022/12/02 07:24:29;;;;;;;47.95;24.83;;;;;;;;;;5117632;28;20043;-63
2022/12/02 07:26:55;;;;;;;59.13;26.10;;;;;;;;;;5100904;28;20451;-62
2022/12/02 07:29:29;;;;;;;54.17;26.75;;;;;;;;;;5115610;28;20130;-62
2022/12/02 07:31:55;;;;;;;50.65;23.83;;;;;;;;;;5114833;28;20065;-62
2022/12/02 07:34:21;;;;;;;51.00;25.05;;;;;;;;;;5105097;28;20062;-63
2022/12/02 07:36:47;;;;;;;53.85;26.42;;;;;;;;;;5121485;28;20159;-63
2022/12/02 07:39:13;;;;;;;59.60;26.02;;;;;;;;;;5118494;28;20450;-63
2022/12/02 07:41:40;;;;;;;55.50;27.08;;;;;;;;;;5125259;28;20039;-63
2022/12/02 07:44:06;;;;;;;48.92;24.50;;;;;;;;;;5102125;28;20067;-63
2022/12/02 07:46:32;;;;;;;49.17;26.27;;;;;;;;;;5118194;28;20100;-62
2022/12/02 07:48:58;;;;;;;53.58;24.48;;;;;;;;;;5116597;28;20071;-63
2022/12/02 07:51:25;;;;;;;50.78;25.98;;;;;;;;;;5114876;28;20039;-63
2022/12/02 07:53:51;;;;;;;50.25;26.67;;;;;;;;;;5118184;28;20050;-63
2022/12/02 07:56:17;;;;;;;55.78;25.60;;;;;;;;;;5096023;28;20040;-63
2022/12/02 07:58:43;;;;;;;48.95;24.30;;;;;;;;;;5107816;28;20130;-63
2022/12/02 08:01:09;;;;;;;50.33;24.88;;;;;;;;;;5094765;28;20057;-62
2022/12/02 08:03:35;;;;;;;46.53;22.88;;;;;;;;;;5118241;28;20508;-63
2022/12/02 08:06:02;;;;;;;52.33;24.75;;;;;;;;;;5100776;28;20107;-63
2022/12/02 08:08:28;;;;;;;46.50;23.67;;;;;;;;;;5111167;28;20048;-62
2022/12/02 08:10:54;;;;;;;37.80;22.45;;;;;;;;;;5116166;28;20377;-63
2022/12/02 08:13:20;;;;;;;44.95;22.05;;;;;;;;;;5113811;28;20496;-62
2022/12/02 08:15:46;;;;;;;46.38;21.63;;;;;;;;;;5099940;28;20485;-63
2022/12/02 08:18:12;;;;;;;49.42;22.35;;;;;;;;;;5123928;27;20039;-63
2022/12/02 08:20:38;;;;;;;41.35;20.98;;;;;;;;;;5119206;27;20399;-63
2022/12/02 08:23:06;;;;;;;45.47;22.98;;;;;;;;;;5110441;27;20556;-63
2022/12/02 08:25:32;;;;;;;39.17;19.95;;;;;;;;;;5119950;27;20051;-63
2022/12/02 08:27:58;;;;;;;39.20;20.05;;;;;;;;;;5126672;27;20035;-63
2022/12/02 08:30:24;;;;;;;41.13;18.42;;;;;;;;;;5123134;27;20052;-63
2022/12/02 08:32:51;;;;;;;31.60;17.73;;;;;;;;;;5126552;27;20075;-63
2022/12/02 08:35:17;;;;;;;31.83;16.20;;;;;;;;;;5127373;27;20058;-63
2022/12/02 08:37:43;;;;;;;44.28;18.92;;;;;;;;;;5103781;27;20087;-63
2022/12/02 08:40:09;;;;;;;31.25;16.67;;;;;;;;;;5104913;27;20047;-62
2022/12/02 08:42:36;;;;;;;38.35;17.80;;;;;;;;;;5114826;27;20035;-63
2022/12/02 08:45:02;;;;;;;36.47;19.23;;;;;;;;;;5124429;27;20096;-63
2022/12/02 08:47:28;;;;;;;39.60;19.38;;;;;;;;;;5127918;27;20035;-63
2022/12/02 08:49:54;;;;;;;47.33;22.33;;;;;;;;;;5121080;27;20040;-62
2022/12/02 08:52:20;;;;;;;42.33;20.88;;;;;;;;;;5112738;27;20092;-63
2022/12/02 08:54:47;;;;;;;41.05;21.58;;;;;;;;;;5124283;27;20039;-63
2022/12/02 08:57:13;;;;;;;44.50;22.23;;;;;;;;;;5125386;27;20039;-62
2022/12/02 08:59:40;;;;;;;48.90;25.00;;;;;;;;;;5118459;27;20092;-62
2022/12/02 09:02:06;;;;;;;52.47;26.70;;;;;;;;;;5123910;27;20425;-63
2022/12/02 09:04:32;;;;;;;50.53;26.45;;;;;;;;;;5097097;27;20130;-62
2022/12/02 09:06:58;;;;;;;37.83;22.38;;;;;;;;;;5120686;27;20046;-62
2022/12/02 09:09:25;;;;;;;47.60;25.05;;;;;;;;;;5124772;27;20057;-62
2022/12/02 09:11:51;;;;;;;45.05;21.63;;;;;;;;;;5120249;27;20051;-64
2022/12/02 09:14:17;;;;;;;37.55;19.58;;;;;;;;;;5105036;27;20437;-62
2022/12/02 09:16:43;;;;;;;36.25;17.85;;;;;;;;;;5120477;27;20038;-62
2022/12/02 09:19:11;;;;;;;30.63;17.40;;;;;;;;;;5122153;27;20403;-62
2022/12/02 09:21:37;;;;;;;30.17;17.70;;;;;;;;;;5121759;27;20046;-62
2022/12/02 09:24:03;;;;;;;35.08;18.77;;;;;;;;;;5116295;27;20039;-62
2022/12/02 09:26:29;;;;;;;37.42;17.33;;;;;;;;;;5108260;27;20436;-63
2022/12/02 09:28:56;;;;;;;29.90;19.08;;;;;;;;;;5118304;27;20095;-62
2022/12/02 09:31:22;;;;;;;33.95;20.33;;;;;;;;;;5107248;27;20508;-63
2022/12/02 09:33:48;;;;;;;38.33;20.33;;;;;;;;;;5121504;27;20075;-62
2022/12/02 09:36:14;;;;;;;42.92;20.75;;;;;;;;;;5122669;27;20031;-62
2022/12/02 09:38:40;;;;;;;38.92;20.08;;;;;;;;;;5105125;27;20130;-63
2022/12/02 09:41:06;;;;;;;31.70;19.13;;;;;;;;;;5100527;27;20645;-63
2022/12/02 09:43:33;;;;;;;30.92;16.48;;;;;;;;;;5121926;27;20035;-63
2022/12/02 09:45:59;;;;;;;35.63;17.73;;;;;;;;;;5121605;27;20051;-63
2022/12/02 09:48:26;;;;;;;30.13;16.20;;;;;;;;;;5120729;27;20074;-63
2022/12/02 09:50:53;;;;;;;35.42;19.02;;;;;;;;;;5117672;27;20078;-62
2022/12/02 09:53:19;;;;;;;36.85;17.13;;;;;;;;;;5115031;27;20035;-62
2022/12/02 09:55:45;;;;;;;29.55;18.02;;;;;;;;;;5120235;27;20031;-62
2022/12/02 09:58:16;;;;;;;30.33;16.35;;;;;;;;;;5104879;27;20046;-62
2022/12/02 10:00:43;;;;;;;29.88;17.88;;;;;;;;;;5101742;27;20039;-62
2022/12/02 10:03:10;;;;;;;33.50;17.75;;;;;;;;;;5124883;27;20078;-62
2022/12/02 10:05:36;;;;;;;31.27;16.13;;;;;;;;;;5123002;27;20538;-62
2022/12/02 10:08:04;;;;;;;34.13;16.95;;;;;;;;;;5117001;27;20505;-62
2022/12/02 10:10:35;;;;;;;29.83;17.63;;;;;;;;;;5106578;27;20042;-62
2022/12/02 10:13:01;;;;;;;28.60;14.60;;;;;;;;;;5117550;27;20043;-62
2022/12/02 10:15:30;;;;;;;31.23;16.35;;;;;;;;;;5120568;27;20046;-62
2022/12/02 10:17:57;;;;;;;28.00;16.17;;;;;;;;;;5119500;27;20047;-62
2022/12/02 10:20:27;;;;;;;31.05;15.77;;;;;;;;;;5106589;27;20050;-62
2022/12/02 10:23:10;;;;;;;28.85;15.27;;;;;;;;;;5123130;27;20046;-62
2022/12/02 10:25:38;;;;;;;32.72;15.45;;;;;;;;;;5123079;27;20345;-62
2022/12/02 10:28:04;;;;;;;33.10;15.98;;;;;;;;;;5113768;27;20039;-62
2022/12/02 10:30:30;;;;;;;26.52;16.75;;;;;;;;;;5106992;27;20542;-62
2022/12/02 10:32:59;;;;;;;33.00;17.20;;;;;;;;;;5123808;27;20062;-62
2022/12/02 10:35:26;;;;;;;35.88;16.30;;;;;;;;;;5103711;27;20039;-62
2022/12/02 10:37:52;;;;;;;34.63;17.15;;;;;;;;;;5122419;27;20043;-62
2022/12/02 10:40:26;;;;;;;35.53;17.60;;;;;;;;;;5124042;27;20127;-62
2022/12/02 10:43:07;;;;;;;36.35;18.98;;;;;;;;;;5106113;27;20038;-63
2022/12/02 10:45:33;;;;;;;29.75;16.58;;;;;;;;;;5124487;27;20031;-62
2022/12/02 10:48:13;;;;;;;30.27;16.90;;;;;;;;;;5119754;27;20043;-62
2022/12/02 10:50:39;;;;;;;28.77;16.17;;;;;;;;;;5119938;27;20075;-62
2022/12/02 10:53:11;;;;;;;27.15;16.00;;;;;;;;;;5124885;27;20085;-62
2022/12/02 10:55:37;;;;;;;31.00;17.50;;;;;;;;;;5123628;27;20043;-63
2022/12/02 10:58:03;;;;;;;28.23;15.10;;;;;;;;;;5088576;27;20039;-63
2022/12/02 11:00:29;;;;;;;28.77;16.83;;;;;;;;;;5106153;27;20031;-63
2022/12/02 11:02:59;;;;;;;26.83;15.25;;;;;;;;;;5118412;27;20503;-63
2022/12/02 11:05:37;;;;;;;34.40;16.45;;;;;;;;;;5119117;27;20066;-63
2022/12/02 11:08:14;;;;;;;35.53;16.73;;;;;;;;;;5106187;27;20615;-63
2022/12/02 11:10:41;;;;;;;31.05;15.63;;;;;;;;;;5121324;27;20042;-63
2022/12/02 11:13:13;;;;;;;32.80;18.45;;;;;;;;;;5122537;27;20126;-62
2022/12/02 11:15:42;;;;;;;29.38;15.40;;;;;;;;;;5098611;27;20492;-62
2022/12/02 11:18:32;;;;;;;30.67;16.95;;;;;;;;;;5121738;27;20257;-63
2022/12/02 11:21:02;;;;;;;30.77;17.25;;;;;;;;;;5087923;28;20035;-62
2022/12/02 11:23:28;;;;;;;26.95;16.17;;;;;;;;;;5104630;28;20054;-62
2022/12/02 11:25:59;;;;;;;28.88;15.73;;;;;;;;;;5096553;28;20527;-62
2022/12/02 11:28:28;;;;;;;34.13;16.38;;;;;;;;;;5119313;28;20031;-62
2022/12/02 11:31:10;;;;;;;28.45;15.82;;;;;;;;;;5123738;28;20055;-62
2022/12/02 11:33:48;;;;;;;31.17;17.13;;;;;;;;;;5086474;28;20082;-63
2022/12/02 11:36:16;;;;;;;26.63;15.07;;;;;;;;;;5107208;28;20142;-62
2022/12/02 11:38:46;;;;;;;26.88;16.15;;;;;;;;;;5123999;28;20200;-63
2022/12/02 11:41:13;;;;;;;29.30;17.25;;;;;;;;;;5118102;28;20042;-62
2022/12/02 11:43:51;;;;;;;32.70;18.38;;;;;;;;;;5115727;28;20062;-63
2022/12/02 11:46:38;;;;;;;31.48;18.65;;;;;;;;;;5122062;28;20115;-63
2022/12/02 11:49:17;;;;;;;35.25;18.80;;;;;;;;;;5102740;28;20039;-63
2022/12/02 11:51:44;;;;;;;29.15;16.88;;;;;;;;;;5120227;28;20035;-63
2022/12/02 11:54:13;;;;;;;32.15;19.98;;;;;;;;;;5125885;27;20113;-63
2022/12/02 11:56:39;;;;;;;40.75;21.58;;;;;;;;;;5126536;27;20070;-63
2022/12/02 11:59:15;;;;;;;34.60;19.52;;;;;;;;;;5110185;27;20049;-63
2022/12/02 12:01:41;;;;;;;36.90;20.00;;;;;;;;;;5125546;27;20096;-62
2022/12/02 12:04:21;;;;;;;37.50;21.85;;;;;;;;;;5125276;27;20071;-62
2022/12/02 12:06:58;;;;;;;38.08;21.30;;;;;;;;;;5125081;27;20126;-63
2022/12/02 12:09:24;;;;;;;38.65;22.80;;;;;;;;;;5126813;27;20400;-63
2022/12/02 12:12:10;;;;;;;34.80;19.83;;;;;;;;;;5108829;27;20065;-63
2022/12/02 12:14:55;;;;;;;35.45;21.98;;;;;;;;;;5106757;27;20040;-63
2022/12/02 12:17:33;;;;;;;42.42;24.00;;;;;;;;;;5124052;27;20045;-63
2022/12/02 12:19:59;;;;;;;43.17;23.83;;;;;;;;;;5108245;27;20400;-63
2022/12/02 12:22:27;;;;;;;39.38;23.38;;;;;;;;;;5126047;27;20035;-63
2022/12/02 12:24:53;;;;;;;39.17;22.77;;;;;;;;;;5108431;27;20043;-63
2022/12/02 12:27:33;;;;;;;37.30;22.70;;;;;;;;;;5126271;27;20050;-62
2022/12/02 12:29:59;;;;;;;36.50;22.65;;;;;;;;;;5120277;27;20674;-63
2022/12/02 12:32:25;;;;;;;36.50;22.20;;;;;;;;;;5109700;27;20107;-63
2022/12/02 12:34:51;;;;;;;37.05;22.30;;;;;;;;;;5109489;27;20605;-62
2022/12/02 12:37:17;;;;;;;35.75;21.95;;;;;;;;;;5119086;27;20539;-62
2022/12/02 12:39:44;;;;;;;34.67;20.75;;;;;;;;;;5128193;27;20031;-62
2022/12/02 12:42:10;;;;;;;33.85;21.77;;;;;;;;;;5124303;27;20537;-63
2022/12/02 12:44:37;;;;;;;33.85;19.80;;;;;;;;;;5126481;27;20042;-63
2022/12/02 12:47:04;;;;;;;35.53;20.73;;;;;;;;;;5120723;27;20450;-63
2022/12/02 12:49:30;;;;;;;34.30;20.08;;;;;;;;;;5125607;27;20051;-63
2022/12/02 12:51:57;;;;;;;35.42;20.35;;;;;;;;;;5121875;27;20074;-63
2022/12/02 12:54:23;;;;;;;31.85;19.63;;;;;;;;;;5117702;27;20039;-63
2022/12/02 12:56:49;;;;;;;32.35;19.15;;;;;;;;;;5127407;27;20066;-62
2022/12/02 12:59:15;;;;;;;32.28;18.10;;;;;;;;;;5122343;27;20034;-62
2022/12/02 13:01:42;;;;;;;34.25;18.75;;;;;;;;;;5124494;27;20039;-63
2022/12/02 13:04:08;;;;;;;32.55;18.67;;;;;;;;;;5120972;27;20481;-63
2022/12/02 13:06:38;;;;;;;24.63;15.30;;;;;;;;;;5114960;27;20039;-63
2022/12/02 13:09:04;;;;;;;29.10;18.42;;;;;;;;;;5095661;28;20046;-62
2022/12/02 13:11:30;;;;;;;29.52;17.20;;;;;;;;;;5116668;27;20492;-62
2022/12/02 13:13:56;;;;;;;29.52;19.52;;;;;;;;;;5111935;27;20049;-63
2022/12/02 13:16:22;;;;;;;28.23;15.82;;;;;;;;;;5123464;27;20285;-63
2022/12/02 13:18:49;;;;;;;27.55;16.45;;;;;;;;;;5107259;27;20050;-62
2022/12/02 13:21:15;;;;;;;28.50;16.60;;;;;;;;;;5119748;27;20631;-63
2022/12/02 13:23:41;;;;;;;28.58;17.85;;;;;;;;;;5115284;27;20294;-62
2022/12/02 13:26:07;;;;;;;27.33;16.08;;;;;;;;;;5106197;27;20061;-62
2022/12/02 13:28:33;;;;;;;23.05;14.65;;;;;;;;;;5120687;27;20073;-62
2022/12/02 13:30:59;;;;;;;24.05;14.75;;;;;;;;;;5113617;27;20051;-62
2022/12/02 13:33:25;;;;;;;31.92;17.17;;;;;;;;;;5125763;27;20114;-62
2022/12/02 13:35:51;;;;;;;25.27;14.77;;;;;;;;;;5125931;27;20416;-62
2022/12/02 13:38:18;;;;;;;29.23;17.42;;;;;;;;;;5121261;27;20122;-62
2022/12/02 13:40:44;;;;;;;29.92;15.10;;;;;;;;;;5127018;27;20103;-62
2022/12/02 13:43:10;;;;;;;32.28;16.52;;;;;;;;;;5125585;27;20051;-62
2022/12/02 13:45:38;;;;;;;30.42;18.05;;;;;;;;;;5123542;27;20504;-63
2022/12/02 13:48:05;;;;;;;31.55;16.45;;;;;;;;;;5110547;27;20043;-63
2022/12/02 13:50:31;;;;;;;29.98;17.67;;;;;;;;;;5122191;27;20096;-62
2022/12/02 13:52:57;;;;;;;26.52;17.42;;;;;;;;;;5119690;27;20429;-62
2022/12/02 13:55:23;;;;;;;25.98;14.75;;;;;;;;;;5120694;27;20035;-63
2022/12/02 13:57:49;;;;;;;22.38;13.95;;;;;;;;;;5122423;27;20586;-62
2022/12/02 14:00:16;;;;;;;27.38;14.77;;;;;;;;;;5106440;27;20442;-63
2022/12/02 14:02:42;;;;;;;24.50;13.95;;;;;;;;;;5123006;27;20061;-63
2022/12/02 14:05:08;;;;;;;27.65;15.88;;;;;;;;;;5124004;27;20041;-62
2022/12/02 14:07:34;;;;;;;32.10;15.82;;;;;;;;;;5107826;27;20055;-62
2022/12/02 14:10:01;;;;;;;30.50;17.00;;;;;;;;;;5106560;27;20050;-63
2022/12/02 14:12:27;;;;;;;25.85;14.23;;;;;;;;;;5121657;27;20039;-62
2022/12/02 14:14:53;;;;;;;29.70;15.30;;;;;;;;;;5107431;27;20481;-63
2022/12/02 14:17:19;;;;;;;24.02;14.40;;;;;;;;;;5122668;27;20404;-62
2022/12/02 14:19:45;;;;;;;29.13;17.17;;;;;;;;;;5124604;27;20031;-63
2022/12/02 14:22:11;;;;;;;29.58;15.20;;;;;;;;;;5090577;27;20046;-63
2022/12/02 14:24:37;;;;;;;29.48;17.17;;;;;;;;;;5126357;27;20043;-63